sensor_id;sensor_type;location;lat;lon;timestamp;P1;durP1;ratioP1;P2;durP2;ratioP2
52878;SDS011;38747;53.140;6.498;2023-06-14T00:01:40;6.50;;;1.20;;
52878;SDS011;38747;53.140;6.498;2023-06-14T00:04:06;5.95;;;1.50;;
52878;SDS011;38747;53.140;6.498;2023-06-14T00:06:33;5.07;;;1.50;;
52878;SDS011;38747;53.140;6.498;2023-06-14T00:08:59;4.68;;;1.30;;
52878;SDS011;38747;53.140;6.498;2023-06-14T00:11:25;5.13;;;1.40;;
52878;SDS011;38747;53.140;6.498;2023-06-14T00:13:52;5.13;;;1.17;;
52878;SDS011;38747;53.140;6.498;2023-06-14T00:16:17;5.15;;;1.60;;
52878;SDS011;38747;53.140;6.498;2023-06-14T00:18:44;6.05;;;1.45;;
52878;SDS011;38747;53.140;6.498;2023-06-14T00:21:11;4.85;;;1.23;;
52878;SDS011;38747;53.140;6.498;2023-06-14T00:23:37;5.55;;;1.65;;
52878;SDS011;38747;53.140;6.498;2023-06-14T00:26:03;6.50;;;1.47;;
52878;SDS011;38747;53.140;6.498;2023-06-14T00:28:28;4.50;;;1.17;;
52878;SDS011;38747;53.140;6.498;2023-06-14T00:30:54;4.20;;;1.30;;
52878;SDS011;38747;53.140;6.498;2023-06-14T00:33:20;5.33;;;1.40;;
52878;SDS011;38747;53.140;6.498;2023-06-14T00:35:46;4.05;;;1.15;;
52878;SDS011;38747;53.140;6.498;2023-06-14T00:38:12;6.35;;;1.70;;
52878;SDS011;38747;53.140;6.498;2023-06-14T00:40:38;3.17;;;1.13;;
52878;SDS011;38747;53.140;6.498;2023-06-14T00:43:03;4.75;;;1.27;;
52878;SDS011;38747;53.140;6.498;2023-06-14T00:45:29;4.67;;;1.40;;
52878;SDS011;38747;53.140;6.498;2023-06-14T00:47:56;5.10;;;1.48;;
52878;SDS011;38747;53.140;6.498;2023-06-14T00:50:22;4.78;;;1.35;;
52878;SDS011;38747;53.140;6.498;2023-06-14T00:52:49;4.30;;;1.30;;
52878;SDS011;38747;53.140;6.498;2023-06-14T00:55:15;4.67;;;1.40;;
52878;SDS011;38747;53.140;6.498;2023-06-14T00:57:40;3.80;;;1.30;;
52878;SDS011;38747;53.140;6.498;2023-06-14T01:00:07;6.13;;;1.00;;
52878;SDS011;38747;53.140;6.498;2023-06-14T01:02:34;5.15;;;1.65;;
52878;SDS011;38747;53.140;6.498;2023-06-14T01:05:03;6.33;;;1.20;;
52878;SDS011;38747;53.140;6.498;2023-06-14T01:15:44;4.25;;;1.10;;
52878;SDS011;38747;53.140;6.498;2023-06-14T01:18:11;3.77;;;1.20;;
52878;SDS011;38747;53.140;6.498;2023-06-14T01:20:44;3.63;;;1.20;;
52878;SDS011;38747;53.140;6.498;2023-06-14T01:23:14;3.70;;;1.20;;
52878;SDS011;38747;53.140;6.498;2023-06-14T01:25:43;4.18;;;1.35;;
52878;SDS011;38747;53.140;6.498;2023-06-14T01:28:09;4.83;;;1.83;;
52878;SDS011;38747;53.140;6.498;2023-06-14T01:30:37;3.97;;;1.23;;
52878;SDS011;38747;53.140;6.498;2023-06-14T01:33:09;4.78;;;1.27;;
52878;SDS011;38747;53.140;6.498;2023-06-14T01:35:41;5.82;;;1.17;;
52878;SDS011;38747;53.140;6.498;2023-06-14T01:38:14;5.63;;;1.48;;
52878;SDS011;38747;53.140;6.498;2023-06-14T01:40:43;3.77;;;1.20;;
52878;SDS011;38747;53.140;6.498;2023-06-14T01:43:10;5.45;;;1.40;;
52878;SDS011;38747;53.140;6.498;2023-06-14T01:45:41;4.40;;;1.25;;
52878;SDS011;38747;53.140;6.498;2023-06-14T01:48:08;3.95;;;1.10;;
52878;SDS011;38747;53.140;6.498;2023-06-14T01:50:34;7.30;;;1.27;;
52878;SDS011;38747;53.140;6.498;2023-06-14T01:52:59;6.07;;;1.17;;
52878;SDS011;38747;53.140;6.498;2023-06-14T01:55:25;4.22;;;1.20;;
52878;SDS011;38747;53.140;6.498;2023-06-14T01:57:51;3.30;;;1.20;;
52878;SDS011;38747;53.140;6.498;2023-06-14T02:00:17;5.28;;;1.40;;
52878;SDS011;38747;53.140;6.498;2023-06-14T02:02:43;5.20;;;1.50;;
52878;SDS011;38747;53.140;6.498;2023-06-14T02:05:10;6.30;;;1.50;;
52878;SDS011;38747;53.140;6.498;2023-06-14T02:07:36;5.27;;;1.50;;
52878;SDS011;38747;53.140;6.498;2023-06-14T02:10:02;4.95;;;1.55;;
52878;SDS011;38747;53.140;6.498;2023-06-14T02:12:29;6.87;;;1.30;;
52878;SDS011;38747;53.140;6.498;2023-06-14T02:14:54;4.82;;;1.30;;
52878;SDS011;38747;53.140;6.498;2023-06-14T02:17:21;5.18;;;1.60;;
52878;SDS011;38747;53.140;6.498;2023-06-14T02:19:47;5.13;;;1.55;;
52878;SDS011;38747;53.140;6.498;2023-06-14T02:22:14;4.67;;;1.40;;
52878;SDS011;38747;53.140;6.498;2023-06-14T02:24:40;4.57;;;1.60;;
52878;SDS011;38747;53.140;6.498;2023-06-14T02:27:06;4.78;;;1.67;;
52878;SDS011;38747;53.140;6.498;2023-06-14T02:29:33;5.95;;;1.50;;
52878;SDS011;38747;53.140;6.498;2023-06-14T02:31:59;4.00;;;1.47;;
52878;SDS011;38747;53.140;6.498;2023-06-14T02:34:25;6.03;;;1.63;;
52878;SDS011;38747;53.140;6.498;2023-06-14T02:36:50;4.87;;;1.50;;
52878;SDS011;38747;53.140;6.498;2023-06-14T02:39:17;5.22;;;1.58;;
52878;SDS011;38747;53.140;6.498;2023-06-14T02:41:45;6.63;;;1.73;;
52878;SDS011;38747;53.140;6.498;2023-06-14T02:44:13;5.60;;;1.77;;
52878;SDS011;38747;53.140;6.498;2023-06-14T02:46:40;7.30;;;1.80;;
52878;SDS011;38747;53.140;6.498;2023-06-14T02:49:06;5.72;;;1.60;;
52878;SDS011;38747;53.140;6.498;2023-06-14T02:51:31;5.90;;;1.85;;
52878;SDS011;38747;53.140;6.498;2023-06-14T02:53:57;4.40;;;1.60;;
52878;SDS011;38747;53.140;6.498;2023-06-14T02:56:22;5.57;;;1.87;;
52878;SDS011;38747;53.140;6.498;2023-06-14T02:58:48;8.52;;;1.80;;
52878;SDS011;38747;53.140;6.498;2023-06-14T03:01:14;5.27;;;2.03;;
52878;SDS011;38747;53.140;6.498;2023-06-14T03:03:39;5.10;;;1.90;;
52878;SDS011;38747;53.140;6.498;2023-06-14T03:06:05;4.93;;;1.90;;
52878;SDS011;38747;53.140;6.498;2023-06-14T03:08:33;7.88;;;1.80;;
52878;SDS011;38747;53.140;6.498;2023-06-14T03:11:03;6.28;;;1.92;;
52878;SDS011;38747;53.140;6.498;2023-06-14T03:13:34;4.95;;;1.77;;
52878;SDS011;38747;53.140;6.498;2023-06-14T03:16:00;5.17;;;1.80;;
52878;SDS011;38747;53.140;6.498;2023-06-14T03:18:31;7.03;;;3.03;;
52878;SDS011;38747;53.140;6.498;2023-06-14T03:21:00;5.63;;;1.70;;
52878;SDS011;38747;53.140;6.498;2023-06-14T03:23:30;5.95;;;1.73;;
52878;SDS011;38747;53.140;6.498;2023-06-14T03:25:56;5.13;;;1.60;;
52878;SDS011;38747;53.140;6.498;2023-06-14T03:28:22;5.87;;;1.70;;
52878;SDS011;38747;53.140;6.498;2023-06-14T03:30:47;6.78;;;1.70;;
52878;SDS011;38747;53.140;6.498;2023-06-14T03:33:13;6.40;;;1.83;;
52878;SDS011;38747;53.140;6.498;2023-06-14T03:35:41;5.80;;;1.95;;
52878;SDS011;38747;53.140;6.498;2023-06-14T03:38:07;6.38;;;2.10;;
52878;SDS011;38747;53.140;6.498;2023-06-14T03:40:32;4.53;;;1.70;;
52878;SDS011;38747;53.140;6.498;2023-06-14T03:42:58;5.63;;;2.00;;
52878;SDS011;38747;53.140;6.498;2023-06-14T03:45:23;6.10;;;1.80;;
52878;SDS011;38747;53.140;6.498;2023-06-14T03:47:50;4.60;;;1.90;;
52878;SDS011;38747;53.140;6.498;2023-06-14T03:50:17;6.25;;;2.00;;
52878;SDS011;38747;53.140;6.498;2023-06-14T03:52:43;5.30;;;1.95;;
52878;SDS011;38747;53.140;6.498;2023-06-14T03:55:09;4.65;;;1.92;;
52878;SDS011;38747;53.140;6.498;2023-06-14T03:57:35;6.90;;;1.80;;
52878;SDS011;38747;53.140;6.498;2023-06-14T04:00:01;5.60;;;2.53;;
52878;SDS011;38747;53.140;6.498;2023-06-14T04:02:29;4.70;;;1.95;;
52878;SDS011;38747;53.140;6.498;2023-06-14T04:04:55;5.10;;;2.00;;
52878;SDS011;38747;53.140;6.498;2023-06-14T04:07:20;6.10;;;1.88;;
52878;SDS011;38747;53.140;6.498;2023-06-14T04:09:46;9.97;;;2.17;;
52878;SDS011;38747;53.140;6.498;2023-06-14T04:12:12;5.63;;;2.30;;
52878;SDS011;38747;53.140;6.498;2023-06-14T04:14:39;5.13;;;2.10;;
52878;SDS011;38747;53.140;6.498;2023-06-14T04:17:05;4.93;;;2.10;;
52878;SDS011;38747;53.140;6.498;2023-06-14T04:19:31;5.20;;;2.30;;
52878;SDS011;38747;53.140;6.498;2023-06-14T04:21:57;4.78;;;1.83;;
52878;SDS011;38747;53.140;6.498;2023-06-14T04:24:27;5.30;;;2.22;;
52878;SDS011;38747;53.140;6.498;2023-06-14T04:26:57;5.45;;;2.15;;
52878;SDS011;38747;53.140;6.498;2023-06-14T04:29:23;5.93;;;2.37;;
52878;SDS011;38747;53.140;6.498;2023-06-14T04:31:51;6.45;;;2.20;;
52878;SDS011;38747;53.140;6.498;2023-06-14T04:34:18;6.90;;;2.00;;
52878;SDS011;38747;53.140;6.498;2023-06-14T04:36:44;6.30;;;2.43;;
52878;SDS011;38747;53.140;6.498;2023-06-14T04:39:18;6.63;;;2.35;;
52878;SDS011;38747;53.140;6.498;2023-06-14T04:41:45;5.80;;;2.20;;
52878;SDS011;38747;53.140;6.498;2023-06-14T04:44:11;5.35;;;2.15;;
52878;SDS011;38747;53.140;6.498;2023-06-14T04:46:38;5.00;;;2.07;;
52878;SDS011;38747;53.140;6.498;2023-06-14T04:49:17;7.65;;;2.20;;
52878;SDS011;38747;53.140;6.498;2023-06-14T04:51:43;5.90;;;2.40;;
52878;SDS011;38747;53.140;6.498;2023-06-14T04:54:10;5.13;;;2.40;;
52878;SDS011;38747;53.140;6.498;2023-06-14T04:56:38;7.03;;;2.88;;
52878;SDS011;38747;53.140;6.498;2023-06-14T04:59:04;6.67;;;2.27;;
52878;SDS011;38747;53.140;6.498;2023-06-14T05:01:30;6.22;;;2.22;;
52878;SDS011;38747;53.140;6.498;2023-06-14T05:03:57;6.88;;;2.22;;
52878;SDS011;38747;53.140;6.498;2023-06-14T05:06:23;6.90;;;2.30;;
52878;SDS011;38747;53.140;6.498;2023-06-14T05:08:49;6.33;;;2.27;;
52878;SDS011;38747;53.140;6.498;2023-06-14T05:11:15;6.30;;;2.10;;
52878;SDS011;38747;53.140;6.498;2023-06-14T05:13:42;8.70;;;2.50;;
52878;SDS011;38747;53.140;6.498;2023-06-14T05:16:08;6.15;;;2.55;;
52878;SDS011;38747;53.140;6.498;2023-06-14T05:18:34;8.03;;;2.40;;
52878;SDS011;38747;53.140;6.498;2023-06-14T05:21:00;7.40;;;1.92;;
52878;SDS011;38747;53.140;6.498;2023-06-14T05:23:26;6.50;;;2.30;;
52878;SDS011;38747;53.140;6.498;2023-06-14T05:25:52;5.23;;;2.20;;
52878;SDS011;38747;53.140;6.498;2023-06-14T05:28:18;6.00;;;2.00;;
52878;SDS011;38747;53.140;6.498;2023-06-14T05:30:43;6.23;;;2.20;;
52878;SDS011;38747;53.140;6.498;2023-06-14T05:33:09;6.32;;;2.17;;
52878;SDS011;38747;53.140;6.498;2023-06-14T05:35:34;6.70;;;2.47;;
52878;SDS011;38747;53.140;6.498;2023-06-14T05:38:00;8.77;;;2.28;;
52878;SDS011;38747;53.140;6.498;2023-06-14T05:40:26;7.47;;;2.83;;
52878;SDS011;38747;53.140;6.498;2023-06-14T05:42:52;6.90;;;2.30;;
52878;SDS011;38747;53.140;6.498;2023-06-14T05:45:18;5.10;;;2.22;;
52878;SDS011;38747;53.140;6.498;2023-06-14T05:47:43;6.67;;;2.57;;
52878;SDS011;38747;53.140;6.498;2023-06-14T05:50:09;6.90;;;2.20;;
52878;SDS011;38747;53.140;6.498;2023-06-14T05:52:35;5.90;;;2.40;;
52878;SDS011;38747;53.140;6.498;2023-06-14T05:55:02;7.70;;;2.55;;
52878;SDS011;38747;53.140;6.498;2023-06-14T05:57:28;6.32;;;2.35;;
52878;SDS011;38747;53.140;6.498;2023-06-14T05:59:54;8.80;;;2.40;;
52878;SDS011;38747;53.140;6.498;2023-06-14T06:02:20;6.82;;;2.40;;
52878;SDS011;38747;53.140;6.498;2023-06-14T06:04:45;6.70;;;2.30;;
52878;SDS011;38747;53.140;6.498;2023-06-14T06:07:11;5.23;;;2.17;;
52878;SDS011;38747;53.140;6.498;2023-06-14T06:09:37;6.40;;;2.33;;
52878;SDS011;38747;53.140;6.498;2023-06-14T06:12:02;8.47;;;2.40;;
52878;SDS011;38747;53.140;6.498;2023-06-14T06:14:32;6.55;;;2.50;;
52878;SDS011;38747;53.140;6.498;2023-06-14T06:16:58;6.40;;;2.17;;
52878;SDS011;38747;53.140;6.498;2023-06-14T06:19:23;6.37;;;2.40;;
52878;SDS011;38747;53.140;6.498;2023-06-14T06:21:49;6.50;;;2.60;;
52878;SDS011;38747;53.140;6.498;2023-06-14T06:24:15;5.13;;;2.30;;
52878;SDS011;38747;53.140;6.498;2023-06-14T06:26:41;6.78;;;2.50;;
52878;SDS011;38747;53.140;6.498;2023-06-14T06:29:07;6.22;;;2.22;;
52878;SDS011;38747;53.140;6.498;2023-06-14T06:31:33;6.37;;;2.30;;
52878;SDS011;38747;53.140;6.498;2023-06-14T06:33:58;5.40;;;2.00;;
52878;SDS011;38747;53.140;6.498;2023-06-14T06:36:24;7.32;;;2.47;;
52878;SDS011;38747;53.140;6.498;2023-06-14T06:38:50;7.03;;;2.30;;
52878;SDS011;38747;53.140;6.498;2023-06-14T06:41:16;6.72;;;2.80;;
52878;SDS011;38747;53.140;6.498;2023-06-14T06:43:41;6.63;;;1.97;;
52878;SDS011;38747;53.140;6.498;2023-06-14T06:46:07;5.70;;;2.30;;
52878;SDS011;38747;53.140;6.498;2023-06-14T06:48:33;6.37;;;2.80;;
52878;SDS011;38747;53.140;6.498;2023-06-14T06:50:58;6.13;;;2.30;;
52878;SDS011;38747;53.140;6.498;2023-06-14T06:53:24;5.73;;;2.20;;
52878;SDS011;38747;53.140;6.498;2023-06-14T06:55:50;6.97;;;2.40;;
52878;SDS011;38747;53.140;6.498;2023-06-14T06:58:15;7.70;;;2.43;;
52878;SDS011;38747;53.140;6.498;2023-06-14T07:00:41;6.15;;;2.03;;
52878;SDS011;38747;53.140;6.498;2023-06-14T07:03:07;6.20;;;2.37;;
52878;SDS011;38747;53.140;6.498;2023-06-14T07:05:33;5.45;;;2.00;;
52878;SDS011;38747;53.140;6.498;2023-06-14T07:07:58;5.45;;;2.05;;
52878;SDS011;38747;53.140;6.498;2023-06-14T07:10:25;5.43;;;2.13;;
52878;SDS011;38747;53.140;6.498;2023-06-14T07:12:50;4.78;;;2.00;;
52878;SDS011;38747;53.140;6.498;2023-06-14T07:15:16;6.57;;;1.87;;
52878;SDS011;38747;53.140;6.498;2023-06-14T07:17:42;6.47;;;1.90;;
52878;SDS011;38747;53.140;6.498;2023-06-14T07:20:08;6.10;;;2.20;;
52878;SDS011;38747;53.140;6.498;2023-06-14T07:22:38;5.90;;;1.90;;
52878;SDS011;38747;53.140;6.498;2023-06-14T07:25:06;5.03;;;2.20;;
52878;SDS011;38747;53.140;6.498;2023-06-14T07:27:37;5.80;;;2.08;;
52878;SDS011;38747;53.140;6.498;2023-06-14T07:30:03;6.13;;;2.30;;
52878;SDS011;38747;53.140;6.498;2023-06-14T07:32:29;7.93;;;1.90;;
52878;SDS011;38747;53.140;6.498;2023-06-14T07:34:54;6.70;;;2.20;;
52878;SDS011;38747;53.140;6.498;2023-06-14T07:37:20;5.35;;;1.77;;
52878;SDS011;38747;53.140;6.498;2023-06-14T07:39:46;5.40;;;2.13;;
52878;SDS011;38747;53.140;6.498;2023-06-14T07:42:11;6.18;;;2.00;;
52878;SDS011;38747;53.140;6.498;2023-06-14T07:44:37;5.43;;;2.10;;
52878;SDS011;38747;53.140;6.498;2023-06-14T07:47:02;6.47;;;2.27;;
52878;SDS011;38747;53.140;6.498;2023-06-14T07:49:28;6.47;;;2.42;;
52878;SDS011;38747;53.140;6.498;2023-06-14T07:51:54;5.97;;;1.93;;
52878;SDS011;38747;53.140;6.498;2023-06-14T07:54:20;5.97;;;2.00;;
52878;SDS011;38747;53.140;6.498;2023-06-14T07:56:49;6.47;;;2.30;;
52878;SDS011;38747;53.140;6.498;2023-06-14T07:59:15;7.50;;;2.13;;
52878;SDS011;38747;53.140;6.498;2023-06-14T08:01:41;11.10;;;1.90;;
52878;SDS011;38747;53.140;6.498;2023-06-14T08:04:12;5.80;;;1.73;;
52878;SDS011;38747;53.140;6.498;2023-06-14T08:06:38;6.07;;;2.03;;
52878;SDS011;38747;53.140;6.498;2023-06-14T08:09:04;8.90;;;2.17;;
52878;SDS011;38747;53.140;6.498;2023-06-14T08:11:30;7.07;;;1.92;;
52878;SDS011;38747;53.140;6.498;2023-06-14T08:13:56;8.02;;;2.08;;
52878;SDS011;38747;53.140;6.498;2023-06-14T08:16:21;5.88;;;2.55;;
52878;SDS011;38747;53.140;6.498;2023-06-14T08:18:48;6.30;;;2.00;;
52878;SDS011;38747;53.140;6.498;2023-06-14T08:21:13;5.72;;;1.80;;
52878;SDS011;38747;53.140;6.498;2023-06-14T08:23:40;5.70;;;1.90;;
52878;SDS011;38747;53.140;6.498;2023-06-14T08:26:08;4.90;;;1.77;;
52878;SDS011;38747;53.140;6.498;2023-06-14T08:28:34;5.43;;;2.00;;
52878;SDS011;38747;53.140;6.498;2023-06-14T08:30:59;6.22;;;2.30;;
52878;SDS011;38747;53.140;6.498;2023-06-14T08:33:25;6.57;;;1.80;;
52878;SDS011;38747;53.140;6.498;2023-06-14T08:35:51;5.37;;;1.90;;
52878;SDS011;38747;53.140;6.498;2023-06-14T08:38:16;4.88;;;1.70;;
52878;SDS011;38747;53.140;6.498;2023-06-14T08:40:42;4.90;;;1.80;;
52878;SDS011;38747;53.140;6.498;2023-06-14T08:43:08;7.25;;;1.90;;
52878;SDS011;38747;53.140;6.498;2023-06-14T08:45:34;4.63;;;1.88;;
52878;SDS011;38747;53.140;6.498;2023-06-14T08:47:59;6.33;;;1.93;;
52878;SDS011;38747;53.140;6.498;2023-06-14T08:50:26;4.80;;;1.83;;
52878;SDS011;38747;53.140;6.498;2023-06-14T08:52:56;4.85;;;1.67;;
52878;SDS011;38747;53.140;6.498;2023-06-14T08:55:25;6.45;;;2.00;;
52878;SDS011;38747;53.140;6.498;2023-06-14T08:57:56;5.57;;;1.80;;
52878;SDS011;38747;53.140;6.498;2023-06-14T09:00:23;4.97;;;2.15;;
52878;SDS011;38747;53.140;6.498;2023-06-14T09:02:51;5.55;;;2.20;;
52878;SDS011;38747;53.140;6.498;2023-06-14T09:05:23;4.75;;;1.73;;
52878;SDS011;38747;53.140;6.498;2023-06-14T09:07:52;6.50;;;2.10;;
52878;SDS011;38747;53.140;6.498;2023-06-14T09:10:20;4.93;;;1.70;;
52878;SDS011;38747;53.140;6.498;2023-06-14T09:12:46;6.03;;;2.05;;
52878;SDS011;38747;53.140;6.498;2023-06-14T09:15:12;6.00;;;2.00;;
52878;SDS011;38747;53.140;6.498;2023-06-14T09:17:39;4.88;;;1.95;;
52878;SDS011;38747;53.140;6.498;2023-06-14T09:20:06;5.65;;;1.85;;
52878;SDS011;38747;53.140;6.498;2023-06-14T09:22:35;5.93;;;1.77;;
52878;SDS011;38747;53.140;6.498;2023-06-14T09:25:01;6.47;;;1.83;;
52878;SDS011;38747;53.140;6.498;2023-06-14T09:27:28;5.97;;;2.10;;
52878;SDS011;38747;53.140;6.498;2023-06-14T09:29:54;5.97;;;1.85;;
52878;SDS011;38747;53.140;6.498;2023-06-14T09:32:20;9.67;;;2.13;;
52878;SDS011;38747;53.140;6.498;2023-06-14T09:34:46;6.30;;;1.73;;
52878;SDS011;38747;53.140;6.498;2023-06-14T09:37:12;6.32;;;1.80;;
52878;SDS011;38747;53.140;6.498;2023-06-14T09:39:50;5.53;;;1.90;;
52878;SDS011;38747;53.140;6.498;2023-06-14T09:42:17;6.00;;;1.95;;
52878;SDS011;38747;53.140;6.498;2023-06-14T09:44:45;5.20;;;1.90;;
52878;SDS011;38747;53.140;6.498;2023-06-14T09:47:12;3.97;;;1.77;;
52878;SDS011;38747;53.140;6.498;2023-06-14T09:49:39;5.07;;;1.92;;
52878;SDS011;38747;53.140;6.498;2023-06-14T09:52:15;5.40;;;1.70;;
52878;SDS011;38747;53.140;6.498;2023-06-14T09:54:45;6.65;;;2.88;;
52878;SDS011;38747;53.140;6.498;2023-06-14T09:57:12;5.18;;;1.90;;
52878;SDS011;38747;53.140;6.498;2023-06-14T09:59:43;6.10;;;1.80;;
52878;SDS011;38747;53.140;6.498;2023-06-14T10:05:04;5.10;;;2.10;;
52878;SDS011;38747;53.140;6.498;2023-06-14T10:07:40;7.28;;;2.00;;
52878;SDS011;38747;53.140;6.498;2023-06-14T10:10:12;4.85;;;1.90;;
52878;SDS011;38747;53.140;6.498;2023-06-14T10:12:39;6.88;;;2.10;;
52878;SDS011;38747;53.140;6.498;2023-06-14T10:15:05;8.00;;;2.00;;
52878;SDS011;38747;53.140;6.498;2023-06-14T10:23:06;5.40;;;2.30;;
52878;SDS011;38747;53.140;6.498;2023-06-14T10:25:33;6.22;;;1.75;;
52878;SDS011;38747;53.140;6.498;2023-06-14T10:28:02;5.25;;;2.00;;
52878;SDS011;38747;53.140;6.498;2023-06-14T10:30:37;5.70;;;1.77;;
52878;SDS011;38747;53.140;6.498;2023-06-14T10:33:03;6.15;;;2.08;;
52878;SDS011;38747;53.140;6.498;2023-06-14T10:35:30;6.25;;;1.88;;
52878;SDS011;38747;53.140;6.498;2023-06-14T10:38:05;5.97;;;1.70;;
52878;SDS011;38747;53.140;6.498;2023-06-14T10:40:31;6.85;;;2.03;;
52878;SDS011;38747;53.140;6.498;2023-06-14T10:42:59;5.75;;;1.80;;
52878;SDS011;38747;53.140;6.498;2023-06-14T10:45:24;5.33;;;1.77;;
52878;SDS011;38747;53.140;6.498;2023-06-14T10:47:50;4.45;;;1.92;;
52878;SDS011;38747;53.140;6.498;2023-06-14T10:50:17;5.95;;;1.60;;
52878;SDS011;38747;53.140;6.498;2023-06-14T10:52:54;5.53;;;1.80;;
52878;SDS011;38747;53.140;6.498;2023-06-14T10:55:20;4.97;;;1.75;;
52878;SDS011;38747;53.140;6.498;2023-06-14T10:57:54;8.38;;;1.80;;
52878;SDS011;38747;53.140;6.498;2023-06-14T11:00:24;4.07;;;1.70;;
52878;SDS011;38747;53.140;6.498;2023-06-14T11:05:42;4.47;;;1.73;;
52878;SDS011;38747;53.140;6.498;2023-06-14T11:11:11;6.38;;;2.00;;
52878;SDS011;38747;53.140;6.498;2023-06-14T11:13:38;5.93;;;1.63;;
52878;SDS011;38747;53.140;6.498;2023-06-14T11:16:13;4.82;;;1.80;;
52878;SDS011;38747;53.140;6.498;2023-06-14T11:18:41;6.18;;;2.47;;
52878;SDS011;38747;53.140;6.498;2023-06-14T11:21:08;6.65;;;1.50;;
52878;SDS011;38747;53.140;6.498;2023-06-14T11:23:35;7.10;;;1.80;;
52878;SDS011;38747;53.140;6.498;2023-06-14T11:26:01;4.40;;;1.60;;
52878;SDS011;38747;53.140;6.498;2023-06-14T11:28:36;4.15;;;1.70;;
52878;SDS011;38747;53.140;6.498;2023-06-14T11:31:03;6.18;;;1.50;;
52878;SDS011;38747;53.140;6.498;2023-06-14T11:33:29;4.70;;;1.50;;
52878;SDS011;38747;53.140;6.498;2023-06-14T11:35:55;4.72;;;1.45;;
52878;SDS011;38747;53.140;6.498;2023-06-14T11:38:21;7.27;;;1.97;;
52878;SDS011;38747;53.140;6.498;2023-06-14T11:40:46;6.07;;;1.35;;
52878;SDS011;38747;53.140;6.498;2023-06-14T11:43:12;7.13;;;1.70;;
52878;SDS011;38747;53.140;6.498;2023-06-14T11:45:39;5.03;;;1.60;;
52878;SDS011;38747;53.140;6.498;2023-06-14T11:48:06;6.05;;;1.70;;
52878;SDS011;38747;53.140;6.498;2023-06-14T11:50:31;4.70;;;1.50;;
52878;SDS011;38747;53.140;6.498;2023-06-14T11:53:01;5.38;;;1.50;;
52878;SDS011;38747;53.140;6.498;2023-06-14T11:55:32;4.05;;;1.20;;
52878;SDS011;38747;53.140;6.498;2023-06-14T11:58:04;3.25;;;1.40;;
52878;SDS011;38747;53.140;6.498;2023-06-14T12:00:30;5.53;;;1.53;;
52878;SDS011;38747;53.140;6.498;2023-06-14T12:02:56;6.18;;;1.40;;
52878;SDS011;38747;53.140;6.498;2023-06-14T12:05:22;3.95;;;1.20;;
52878;SDS011;38747;53.140;6.498;2023-06-14T12:07:49;5.18;;;1.35;;
52878;SDS011;38747;53.140;6.498;2023-06-14T12:10:15;4.37;;;1.40;;
52878;SDS011;38747;53.140;6.498;2023-06-14T12:12:41;5.00;;;1.27;;
52878;SDS011;38747;53.140;6.498;2023-06-14T12:15:08;3.72;;;1.20;;
52878;SDS011;38747;53.140;6.498;2023-06-14T12:17:36;4.22;;;1.70;;
52878;SDS011;38747;53.140;6.498;2023-06-14T12:20:11;7.17;;;1.70;;
52878;SDS011;38747;53.140;6.498;2023-06-14T12:22:56;5.72;;;1.33;;
52878;SDS011;38747;53.140;6.498;2023-06-14T12:25:31;6.57;;;1.70;;
52878;SDS011;38747;53.140;6.498;2023-06-14T12:27:59;5.05;;;1.33;;
52878;SDS011;38747;53.140;6.498;2023-06-14T12:30:32;4.55;;;1.60;;
52878;SDS011;38747;53.140;6.498;2023-06-14T12:32:59;5.30;;;1.40;;
52878;SDS011;38747;53.140;6.498;2023-06-14T12:35:25;4.88;;;1.50;;
52878;SDS011;38747;53.140;6.498;2023-06-14T12:37:51;7.28;;;1.40;;
52878;SDS011;38747;53.140;6.498;2023-06-14T12:40:16;3.63;;;1.27;;
52878;SDS011;38747;53.140;6.498;2023-06-14T12:42:44;3.47;;;1.45;;
52878;SDS011;38747;53.140;6.498;2023-06-14T12:45:10;4.35;;;1.40;;
52878;SDS011;38747;53.140;6.498;2023-06-14T12:47:36;6.17;;;1.63;;
52878;SDS011;38747;53.140;6.498;2023-06-14T12:50:01;4.38;;;1.38;;
52878;SDS011;38747;53.140;6.498;2023-06-14T12:52:27;5.03;;;1.50;;
52878;SDS011;38747;53.140;6.498;2023-06-14T12:54:52;6.18;;;1.90;;
52878;SDS011;38747;53.140;6.498;2023-06-14T12:57:18;6.27;;;1.30;;
52878;SDS011;38747;53.140;6.498;2023-06-14T12:59:44;6.63;;;1.57;;
52878;SDS011;38747;53.140;6.498;2023-06-14T13:02:10;3.83;;;1.45;;
52878;SDS011;38747;53.140;6.498;2023-06-14T13:04:40;4.70;;;1.80;;
52878;SDS011;38747;53.140;6.498;2023-06-14T13:07:06;6.50;;;1.57;;
52878;SDS011;38747;53.140;6.498;2023-06-14T13:09:31;6.50;;;1.80;;
52878;SDS011;38747;53.140;6.498;2023-06-14T13:11:57;4.63;;;1.70;;
52878;SDS011;38747;53.140;6.498;2023-06-14T13:14:22;4.13;;;1.77;;
52878;SDS011;38747;53.140;6.498;2023-06-14T13:16:48;4.20;;;1.70;;
52878;SDS011;38747;53.140;6.498;2023-06-14T13:19:14;7.23;;;1.80;;
52878;SDS011;38747;53.140;6.498;2023-06-14T13:21:39;4.60;;;1.70;;
52878;SDS011;38747;53.140;6.498;2023-06-14T13:24:05;5.30;;;1.80;;
52878;SDS011;38747;53.140;6.498;2023-06-14T13:26:31;3.85;;;1.58;;
52878;SDS011;38747;53.140;6.498;2023-06-14T13:28:58;4.18;;;1.65;;
52878;SDS011;38747;53.140;6.498;2023-06-14T13:31:24;4.87;;;1.60;;
52878;SDS011;38747;53.140;6.498;2023-06-14T13:33:50;5.03;;;1.63;;
52878;SDS011;38747;53.140;6.498;2023-06-14T13:36:16;6.33;;;2.10;;
52878;SDS011;38747;53.140;6.498;2023-06-14T13:38:42;4.90;;;1.80;;
52878;SDS011;38747;53.140;6.498;2023-06-14T13:41:07;3.75;;;1.70;;
52878;SDS011;38747;53.140;6.498;2023-06-14T13:43:33;4.37;;;1.53;;
52878;SDS011;38747;53.140;6.498;2023-06-14T13:45:58;5.07;;;1.90;;
52878;SDS011;38747;53.140;6.498;2023-06-14T13:48:24;4.23;;;1.97;;
52878;SDS011;38747;53.140;6.498;2023-06-14T13:50:50;4.13;;;1.70;;
52878;SDS011;38747;53.140;6.498;2023-06-14T13:53:15;5.13;;;1.90;;
52878;SDS011;38747;53.140;6.498;2023-06-14T13:55:41;7.67;;;1.97;;
52878;SDS011;38747;53.140;6.498;2023-06-14T13:58:06;4.60;;;1.83;;
52878;SDS011;38747;53.140;6.498;2023-06-14T14:00:32;5.43;;;1.70;;
52878;SDS011;38747;53.140;6.498;2023-06-14T14:02:58;4.05;;;1.65;;
52878;SDS011;38747;53.140;6.498;2023-06-14T14:05:24;6.00;;;1.90;;
52878;SDS011;38747;53.140;6.498;2023-06-14T14:07:54;6.40;;;1.80;;
52878;SDS011;38747;53.140;6.498;2023-06-14T14:10:22;4.30;;;1.83;;
52878;SDS011;38747;53.140;6.498;2023-06-14T14:12:49;4.60;;;1.90;;
52878;SDS011;38747;53.140;6.498;2023-06-14T14:15:16;5.55;;;1.90;;
52878;SDS011;38747;53.140;6.498;2023-06-14T14:17:42;5.28;;;1.50;;
52878;SDS011;38747;53.140;6.498;2023-06-14T14:20:08;4.23;;;1.80;;
52878;SDS011;38747;53.140;6.498;2023-06-14T14:22:34;4.10;;;1.63;;
52878;SDS011;38747;53.140;6.498;2023-06-14T14:24:59;3.87;;;1.70;;
52878;SDS011;38747;53.140;6.498;2023-06-14T14:27:25;5.78;;;1.90;;
52878;SDS011;38747;53.140;6.498;2023-06-14T14:29:51;3.70;;;1.70;;
52878;SDS011;38747;53.140;6.498;2023-06-14T14:32:16;4.80;;;1.77;;
52878;SDS011;38747;53.140;6.498;2023-06-14T14:34:42;6.80;;;1.60;;
52878;SDS011;38747;53.140;6.498;2023-06-14T14:37:07;5.00;;;1.77;;
52878;SDS011;38747;53.140;6.498;2023-06-14T14:39:33;4.63;;;2.20;;
52878;SDS011;38747;53.140;6.498;2023-06-14T14:41:59;5.25;;;1.83;;
52878;SDS011;38747;53.140;6.498;2023-06-14T14:44:25;4.43;;;2.03;;
52878;SDS011;38747;53.140;6.498;2023-06-14T14:46:50;4.10;;;1.63;;
52878;SDS011;38747;53.140;6.498;2023-06-14T14:49:16;4.23;;;1.70;;
52878;SDS011;38747;53.140;6.498;2023-06-14T14:51:42;4.23;;;1.83;;
52878;SDS011;38747;53.140;6.498;2023-06-14T14:54:07;4.93;;;1.75;;
52878;SDS011;38747;53.140;6.498;2023-06-14T14:56:33;3.83;;;1.70;;
52878;SDS011;38747;53.140;6.498;2023-06-14T14:59:00;7.63;;;1.80;;
52878;SDS011;38747;53.140;6.498;2023-06-14T15:01:26;4.07;;;1.58;;
52878;SDS011;38747;53.140;6.498;2023-06-14T15:03:51;4.33;;;1.70;;
52878;SDS011;38747;53.140;6.498;2023-06-14T15:06:17;7.00;;;2.03;;
52878;SDS011;38747;53.140;6.498;2023-06-14T15:08:43;4.87;;;2.07;;